sensor_id;sensor_type;location;lat;lon;timestamp;pressure;altitude;pressure_sealevel;temperature;humidity
61026;BME280;46911;32.650;-16.902;2023-05-02T00:00:00;101370.28;;;19.39;58.47
61026;BME280;46911;32.650;-16.902;2023-05-02T00:02:01;101370.59;;;19.36;57.72
61026;BME280;46911;32.650;-16.902;2023-05-02T00:04:03;101360.91;;;19.34;57.49
61026;BME280;46911;32.650;-16.902;2023-05-02T00:06:04;101372.72;;;19.33;57.42
61026;BME280;46911;32.650;-16.902;2023-05-02T00:08:05;101378.69;;;19.27;57.63
61026;BME280;46911;32.650;-16.902;2023-05-02T00:10:08;101366.63;;;19.21;58.15
61026;BME280;46911;32.650;-16.902;2023-05-02T00:12:09;101367.91;;;19.17;58.50
61026;BME280;46911;32.650;-16.902;2023-05-02T00:14:10;101391.38;;;19.26;59.09
61026;BME280;46911;32.650;-16.902;2023-05-02T00:16:13;101382.84;;;19.21;59.76
61026;BME280;46911;32.650;-16.902;2023-05-02T00:18:14;101372.75;;;19.13;60.80
61026;BME280;46911;32.650;-16.902;2023-05-02T00:20:15;101362.09;;;19.02;61.78
61026;BME280;46911;32.650;-16.902;2023-05-02T00:22:16;101397.09;;;19.13;63.10
61026;BME280;46911;32.650;-16.902;2023-05-02T00:24:17;101383.03;;;19.10;64.64
61026;BME280;46911;32.650;-16.902;2023-05-02T00:26:18;101374.47;;;19.04;64.89
61026;BME280;46911;32.650;-16.902;2023-05-02T00:28:21;101392.25;;;19.17;65.86
61026;BME280;46911;32.650;-16.902;2023-05-02T00:30:23;101376.88;;;19.07;66.69
61026;BME280;46911;32.650;-16.902;2023-05-02T00:32:26;101373.22;;;18.99;67.53
61026;BME280;46911;32.650;-16.902;2023-05-02T00:34:30;101372.50;;;18.97;68.13
61026;BME280;46911;32.650;-16.902;2023-05-02T00:36:34;101392.28;;;19.07;68.37
61026;BME280;46911;32.650;-16.902;2023-05-02T00:38:35;101366.66;;;18.92;69.09
61026;BME280;46911;32.650;-16.902;2023-05-02T00:40:48;101377.06;;;18.96;69.42
61026;BME280;46911;32.650;-16.902;2023-05-02T00:42:51;101386.44;;;19.02;70.19
61026;BME280;46911;32.650;-16.902;2023-05-02T00:44:52;101361.53;;;18.88;71.13
61026;BME280;46911;32.650;-16.902;2023-05-02T00:46:54;101388.41;;;19.00;71.61
61026;BME280;46911;32.650;-16.902;2023-05-02T00:48:55;101353.44;;;18.88;72.01
61026;BME280;46911;32.650;-16.902;2023-05-02T00:51:00;101358.84;;;18.88;72.74
61026;BME280;46911;32.650;-16.902;2023-05-02T00:53:07;101347.13;;;18.88;72.84
61026;BME280;46911;32.650;-16.902;2023-05-02T00:55:08;101346.00;;;18.81;72.91
61026;BME280;46911;32.650;-16.902;2023-05-02T00:57:16;101339.31;;;18.75;72.43
61026;BME280;46911;32.650;-16.902;2023-05-02T00:59:20;101363.50;;;18.86;72.27
61026;BME280;46911;32.650;-16.902;2023-05-02T01:01:46;101346.44;;;18.86;72.64
61026;BME280;46911;32.650;-16.902;2023-05-02T01:04:20;101343.28;;;18.81;71.29
61026;BME280;46911;32.650;-16.902;2023-05-02T01:11:38;101316.28;;;18.61;66.82
61026;BME280;46911;32.650;-16.902;2023-05-02T01:13:44;101332.66;;;18.69;65.30
61026;BME280;46911;32.650;-16.902;2023-05-02T01:15:49;101328.66;;;18.64;64.83
61026;BME280;46911;32.650;-16.902;2023-05-02T01:17:54;101311.16;;;18.58;64.22
61026;BME280;46911;32.650;-16.902;2023-05-02T01:19:58;101316.00;;;18.64;63.35
61026;BME280;46911;32.650;-16.902;2023-05-02T01:22:04;101321.97;;;18.68;62.63
61026;BME280;46911;32.650;-16.902;2023-05-02T01:24:12;101324.25;;;18.72;62.38
61026;BME280;46911;32.650;-16.902;2023-05-02T01:26:44;101316.00;;;18.74;62.27
61026;BME280;46911;32.650;-16.902;2023-05-02T01:29:07;101309.91;;;18.72;61.17
61026;BME280;46911;32.650;-16.902;2023-05-02T01:31:12;101314.00;;;18.86;59.73
61026;BME280;46911;32.650;-16.902;2023-05-02T01:33:21;101316.84;;;18.94;59.29
61026;BME280;46911;32.650;-16.902;2023-05-02T01:35:25;101291.25;;;18.88;59.13
61026;BME280;46911;32.650;-16.902;2023-05-02T01:37:29;101292.09;;;18.99;58.33
61026;BME280;46911;32.650;-16.902;2023-05-02T01:39:32;101310.84;;;19.10;58.12
61026;BME280;46911;32.650;-16.902;2023-05-02T01:41:35;101304.59;;;19.10;57.56
61026;BME280;46911;32.650;-16.902;2023-05-02T01:43:36;101286.97;;;19.05;57.13
61026;BME280;46911;32.650;-16.902;2023-05-02T01:45:40;101282.81;;;19.11;56.65
61026;BME280;46911;32.650;-16.902;2023-05-02T01:47:45;101289.19;;;19.20;56.22
61026;BME280;46911;32.650;-16.902;2023-05-02T01:49:50;101284.50;;;19.22;56.12
61026;BME280;46911;32.650;-16.902;2023-05-02T01:51:53;101261.19;;;19.11;55.66
61026;BME280;46911;32.650;-16.902;2023-05-02T01:54:02;101270.97;;;19.22;55.67
61026;BME280;46911;32.650;-16.902;2023-05-02T01:56:11;101270.97;;;19.22;54.69
61026;BME280;46911;32.650;-16.902;2023-05-02T01:58:13;101254.47;;;19.15;54.27
61026;BME280;46911;32.650;-16.902;2023-05-02T02:00:16;101247.38;;;19.14;53.89
61026;BME280;46911;32.650;-16.902;2023-05-02T02:02:18;101250.47;;;19.19;53.81
61026;BME280;46911;32.650;-16.902;2023-05-02T02:04:22;101245.38;;;19.16;53.93
61026;BME280;46911;32.650;-16.902;2023-05-02T02:06:28;101260.25;;;19.30;53.42
61026;BME280;46911;32.650;-16.902;2023-05-02T02:08:29;101261.81;;;19.33;53.26
61026;BME280;46911;32.650;-16.902;2023-05-02T02:10:34;101245.63;;;19.23;53.27
61026;BME280;46911;32.650;-16.902;2023-05-02T02:12:49;101245.63;;;19.23;53.03
61026;BME280;46911;32.650;-16.902;2023-05-02T02:15:20;101254.69;;;19.32;52.99
61026;BME280;46911;32.650;-16.902;2023-05-02T02:17:36;101249.44;;;19.30;52.23
61026;BME280;46911;32.650;-16.902;2023-05-02T02:19:40;101230.84;;;19.17;52.33
61026;BME280;46911;32.650;-16.902;2023-05-02T02:21:42;101242.94;;;19.23;52.25
61026;BME280;46911;32.650;-16.902;2023-05-02T02:23:50;101233.84;;;19.14;52.22
61026;BME280;46911;32.650;-16.902;2023-05-02T02:25:58;101241.28;;;19.12;52.79
61026;BME280;46911;32.650;-16.902;2023-05-02T02:28:01;101221.22;;;19.05;52.95
61026;BME280;46911;32.650;-16.902;2023-05-02T02:30:02;101209.19;;;18.89;53.29
61026;BME280;46911;32.650;-16.902;2023-05-02T02:32:03;101226.66;;;18.95;53.25
61026;BME280;46911;32.650;-16.902;2023-05-02T02:34:04;101193.09;;;18.78;53.53
61026;BME280;46911;32.650;-16.902;2023-05-02T02:36:20;101189.53;;;18.78;53.80
61026;BME280;46911;32.650;-16.902;2023-05-02T02:40:44;101188.56;;;18.69;54.08
61026;BME280;46911;32.650;-16.902;2023-05-02T02:43:02;101170.94;;;18.65;54.03
61026;BME280;46911;32.650;-16.902;2023-05-02T02:47:57;101139.44;;;18.46;53.79
61026;BME280;46911;32.650;-16.902;2023-05-02T02:50:18;101164.97;;;18.61;53.50
61026;BME280;46911;32.650;-16.902;2023-05-02T02:52:26;101184.56;;;18.73;52.99
61026;BME280;46911;32.650;-16.902;2023-05-02T02:54:40;101186.44;;;18.72;52.93
61026;BME280;46911;32.650;-16.902;2023-05-02T02:56:51;101188.13;;;18.73;52.63
61026;BME280;46911;32.650;-16.902;2023-05-02T02:59:04;101175.16;;;18.77;52.47
61026;BME280;46911;32.650;-16.902;2023-05-02T03:01:10;101177.72;;;18.88;52.16
61026;BME280;46911;32.650;-16.902;2023-05-02T03:03:18;101166.47;;;18.83;52.12
61026;BME280;46911;32.650;-16.902;2023-05-02T03:05:21;101181.09;;;19.00;51.87
61026;BME280;46911;32.650;-16.902;2023-05-02T03:07:26;101164.78;;;18.92;51.66
61026;BME280;46911;32.650;-16.902;2023-05-02T03:09:40;101175.97;;;19.07;51.58
61026;BME280;46911;32.650;-16.902;2023-05-02T03:11:45;101174.25;;;19.06;51.89
61026;BME280;46911;32.650;-16.902;2023-05-02T03:13:47;101158.19;;;18.95;51.60
61026;BME280;46911;32.650;-16.902;2023-05-02T03:18:02;101163.59;;;19.04;51.49
61026;BME280;46911;32.650;-16.902;2023-05-02T03:20:03;101148.66;;;19.00;51.07
61026;BME280;46911;32.650;-16.902;2023-05-02T03:22:04;101151.06;;;19.03;50.94
61026;BME280;46911;32.650;-16.902;2023-05-02T03:24:07;101155.41;;;19.14;51.47
61026;BME280;46911;32.650;-16.902;2023-05-02T03:26:08;101157.81;;;19.17;51.07
61026;BME280;46911;32.650;-16.902;2023-05-02T03:28:10;101144.19;;;19.09;51.05
61026;BME280;46911;32.650;-16.902;2023-05-02T03:30:13;101152.28;;;19.19;50.98
61026;BME280;46911;32.650;-16.902;2023-05-02T03:32:14;101154.84;;;19.20;50.56
61026;BME280;46911;32.650;-16.902;2023-05-02T03:34:17;101155.25;;;19.26;50.27
61026;BME280;46911;32.650;-16.902;2023-05-02T03:36:25;101162.78;;;19.22;50.70
61026;BME280;46911;32.650;-16.902;2023-05-02T03:38:29;101158.06;;;19.24;50.80
61026;BME280;46911;32.650;-16.902;2023-05-02T03:40:36;101138.34;;;19.14;50.69
61026;BME280;46911;32.650;-16.902;2023-05-02T03:42:38;101157.63;;;19.29;50.42
61026;BME280;46911;32.650;-16.902;2023-05-02T03:44:52;101130.34;;;19.22;50.50
61026;BME280;46911;32.650;-16.902;2023-05-02T03:46:56;101132.03;;;19.23;49.88
61026;BME280;46911;32.650;-16.902;2023-05-02T03:48:58;101114.78;;;19.24;50.00
61026;BME280;46911;32.650;-16.902;2023-05-02T03:51:01;101117.91;;;19.29;49.50
61026;BME280;46911;32.650;-16.902;2023-05-02T03:53:12;101124.94;;;19.40;49.62
61026;BME280;46911;32.650;-16.902;2023-05-02T03:55:22;101108.22;;;19.27;49.68
61026;BME280;46911;32.650;-16.902;2023-05-02T03:57:29;101136.78;;;19.39;49.62
61026;BME280;46911;32.650;-16.902;2023-05-02T03:59:33;101137.78;;;19.38;49.79
61026;BME280;46911;32.650;-16.902;2023-05-02T04:01:42;101118.22;;;19.26;49.74
61026;BME280;46911;32.650;-16.902;2023-05-02T04:03:51;101110.09;;;19.26;49.79
61026;BME280;46911;32.650;-16.902;2023-05-02T04:05:55;101112.34;;;19.31;49.97
61026;BME280;46911;32.650;-16.902;2023-05-02T04:07:56;101107.06;;;19.29;49.52
61026;BME280;46911;32.650;-16.902;2023-05-02T04:09:58;101109.19;;;19.35;49.36
61026;BME280;46911;32.650;-16.902;2023-05-02T04:12:01;101098.69;;;19.32;49.49
61026;BME280;46911;32.650;-16.902;2023-05-02T04:14:06;101096.91;;;19.41;49.54
61026;BME280;46911;32.650;-16.902;2023-05-02T04:16:10;101120.34;;;19.50;49.33
61026;BME280;46911;32.650;-16.902;2023-05-02T04:18:12;101122.03;;;19.51;49.25
61026;BME280;46911;32.650;-16.902;2023-05-02T04:20:16;101116.47;;;19.53;48.80
61026;BME280;46911;32.650;-16.902;2023-05-02T04:22:24;101100.00;;;19.46;49.09
61026;BME280;46911;32.650;-16.902;2023-05-02T04:24:29;101118.38;;;19.43;49.19
61026;BME280;46911;32.650;-16.902;2023-05-02T04:26:32;101129.59;;;19.48;49.23
61026;BME280;46911;32.650;-16.902;2023-05-02T04:28:39;101127.22;;;19.45;49.09
61026;BME280;46911;32.650;-16.902;2023-05-02T04:30:44;101117.84;;;19.39;49.32
61026;BME280;46911;32.650;-16.902;2023-05-02T04:32:47;101098.28;;;19.27;49.13
61026;BME280;46911;32.650;-16.902;2023-05-02T04:34:49;101116.31;;;19.36;49.26
61026;BME280;46911;32.650;-16.902;2023-05-02T04:36:54;101107.41;;;19.26;49.15
61026;BME280;46911;32.650;-16.902;2023-05-02T04:38:59;101124.88;;;19.32;49.60
61026;BME280;46911;32.650;-16.902;2023-05-02T04:40:59;101114.25;;;19.20;49.27
61026;BME280;46911;32.650;-16.902;2023-05-02T04:43:14;101104.03;;;19.14;49.50
61026;BME280;46911;32.650;-16.902;2023-05-02T04:45:26;101107.75;;;19.13;49.73
61026;BME280;46911;32.650;-16.902;2023-05-02T04:47:27;101122.97;;;19.14;49.41
61026;BME280;46911;32.650;-16.902;2023-05-02T04:49:30;101135.75;;;19.22;49.24
61026;BME280;46911;32.650;-16.902;2023-05-02T04:51:37;101118.72;;;19.12;49.49
61026;BME280;46911;32.650;-16.902;2023-05-02T04:53:41;101137.47;;;19.23;49.21
61026;BME280;46911;32.650;-16.902;2023-05-02T04:55:42;101138.84;;;19.27;49.21
61026;BME280;46911;32.650;-16.902;2023-05-02T04:57:43;101139.25;;;19.32;49.07
61026;BME280;46911;32.650;-16.902;2023-05-02T04:59:47;101146.34;;;19.33;49.26
61026;BME280;46911;32.650;-16.902;2023-05-02T05:01:49;101130.19;;;19.23;49.38
61026;BME280;46911;32.650;-16.902;2023-05-02T05:03:51;101149.53;;;19.29;48.94
61026;BME280;46911;32.650;-16.902;2023-05-02T05:05:52;101159.88;;;19.33;48.56
61026;BME280;46911;32.650;-16.902;2023-05-02T05:07:56;101164.28;;;19.34;48.46
61026;BME280;46911;32.650;-16.902;2023-05-02T05:09:58;101155.75;;;19.29;48.15
61026;BME280;46911;32.650;-16.902;2023-05-02T05:12:09;101147.56;;;19.21;48.00
61026;BME280;46911;32.650;-16.902;2023-05-02T05:14:11;101144.69;;;19.22;48.46
61026;BME280;46911;32.650;-16.902;2023-05-02T05:16:16;101166.84;;;19.36;47.87
61026;BME280;46911;32.650;-16.902;2023-05-02T05:18:20;101156.16;;;19.34;48.16
61026;BME280;46911;32.650;-16.902;2023-05-02T05:20:24;101127.06;;;19.18;48.07
61026;BME280;46911;32.650;-16.902;2023-05-02T05:22:28;101135.84;;;19.30;48.12
61026;BME280;46911;32.650;-16.902;2023-05-02T05:24:32;101128.03;;;19.27;48.35
61026;BME280;46911;32.650;-16.902;2023-05-02T05:26:36;101109.25;;;19.26;47.94
61026;BME280;46911;32.650;-16.902;2023-05-02T05:28:37;101088.06;;;19.21;47.68
61026;BME280;46911;32.650;-16.902;2023-05-02T05:30:41;101099.53;;;19.33;47.92
61026;BME280;46911;32.650;-16.902;2023-05-02T05:32:47;101108.88;;;19.38;47.20
61026;BME280;46911;32.650;-16.902;2023-05-02T05:34:51;101098.44;;;19.26;47.13
61026;BME280;46911;32.650;-16.902;2023-05-02T05:36:54;101127.28;;;19.35;47.19
61026;BME280;46911;32.650;-16.902;2023-05-02T05:38:57;101119.53;;;19.22;47.76
61026;BME280;46911;32.650;-16.902;2023-05-02T05:41:01;101134.28;;;19.28;47.60
61026;BME280;46911;32.650;-16.902;2023-05-02T05:43:02;101157.41;;;19.40;47.19
61026;BME280;46911;32.650;-16.902;2023-05-02T05:45:10;101130.91;;;19.26;47.18
61026;BME280;46911;32.650;-16.902;2023-05-02T05:47:18;101145.34;;;19.34;47.45
61026;BME280;46911;32.650;-16.902;2023-05-02T05:49:21;101143.50;;;19.35;47.56
61026;BME280;46911;32.650;-16.902;2023-05-02T05:51:24;101122.31;;;19.30;46.72
61026;BME280;46911;32.650;-16.902;2023-05-02T05:53:28;101115.34;;;19.28;47.21
61026;BME280;46911;32.650;-16.902;2023-05-02T05:55:29;101130.22;;;19.42;47.67
61026;BME280;46911;32.650;-16.902;2023-05-02T05:57:36;101122.47;;;19.47;47.53
61026;BME280;46911;32.650;-16.902;2023-05-02T05:59:39;101094.91;;;19.43;47.47
61026;BME280;46911;32.650;-16.902;2023-05-02T06:01:44;101091.72;;;19.48;47.37
61026;BME280;46911;32.650;-16.902;2023-05-02T06:03:46;101088.34;;;19.46;47.13
61026;BME280;46911;32.650;-16.902;2023-05-02T06:05:52;101103.78;;;19.53;46.94
61026;BME280;46911;32.650;-16.902;2023-05-02T06:07:53;101083.09;;;19.44;47.29
61026;BME280;46911;32.650;-16.902;2023-05-02T06:09:54;101096.47;;;19.46;46.99
61026;BME280;46911;32.650;-16.902;2023-05-02T06:11:57;101083.09;;;19.44;47.08
61026;BME280;46911;32.650;-16.902;2023-05-02T06:14:02;101109.75;;;19.57;47.22
61026;BME280;46911;32.650;-16.902;2023-05-02T06:16:06;101134.88;;;19.67;46.85
61026;BME280;46911;32.650;-16.902;2023-05-02T06:18:07;101130.00;;;19.53;46.84
61026;BME280;46911;32.650;-16.902;2023-05-02T06:20:09;101151.44;;;19.64;46.73
61026;BME280;46911;32.650;-16.902;2023-05-02T06:22:14;101135.22;;;19.64;47.08
61026;BME280;46911;32.650;-16.902;2023-05-02T06:24:15;101126.22;;;19.64;46.74
61026;BME280;46911;32.650;-16.902;2023-05-02T06:26:16;101135.72;;;19.68;45.95
61026;BME280;46911;32.650;-16.902;2023-05-02T06:28:17;101097.75;;;19.60;45.64
61026;BME280;46911;32.650;-16.902;2023-05-02T06:30:20;101105.78;;;19.69;46.08
61026;BME280;46911;32.650;-16.902;2023-05-02T06:32:30;101083.84;;;19.72;46.41
61026;BME280;46911;32.650;-16.902;2023-05-02T06:34:33;101063.81;;;19.65;46.66
61026;BME280;46911;32.650;-16.902;2023-05-02T06:36:37;101050.06;;;19.77;46.92
61026;BME280;46911;32.650;-16.902;2023-05-02T06:38:38;101022.94;;;19.68;46.71
61026;BME280;46911;32.650;-16.902;2023-05-02T06:40:39;100998.63;;;19.77;46.18
61026;BME280;46911;32.650;-16.902;2023-05-02T06:42:44;100997.09;;;19.74;46.15
61026;BME280;46911;32.650;-16.902;2023-05-02T06:44:49;100991.75;;;19.82;45.27
61026;BME280;46911;32.650;-16.902;2023-05-02T06:46:51;100989.59;;;19.86;45.37
61026;BME280;46911;32.650;-16.902;2023-05-02T06:48:51;101009.81;;;20.00;45.49
61026;BME280;46911;32.650;-16.902;2023-05-02T06:50:52;100995.06;;;19.94;45.42
61026;BME280;46911;32.650;-16.902;2023-05-02T06:52:58;100987.94;;;19.93;45.43
61026;BME280;46911;32.650;-16.902;2023-05-02T06:54:59;101006.63;;;20.04;44.74
61026;BME280;46911;32.650;-16.902;2023-05-02T06:57:00;100975.09;;;19.95;44.79
61026;BME280;46911;32.650;-16.902;2023-05-02T06:59:03;100961.56;;;19.95;45.11
61026;BME280;46911;32.650;-16.902;2023-05-02T07:01:06;100948.88;;;19.96;45.33
61026;BME280;46911;32.650;-16.902;2023-05-02T07:03:08;100960.44;;;20.06;45.42
61026;BME280;46911;32.650;-16.902;2023-05-02T07:05:11;100952.47;;;20.04;45.08
61026;BME280;46911;32.650;-16.902;2023-05-02T07:07:12;100954.66;;;20.01;44.76
61026;BME280;46911;32.650;-16.902;2023-05-02T07:09:18;100950.25;;;20.00;42.53
61026;BME280;46911;32.650;-16.902;2023-05-02T07:11:19;100934.03;;;20.08;42.11
61026;BME280;46911;32.650;-16.902;2023-05-02T07:13:21;100953.19;;;20.15;41.73
61026;BME280;46911;32.650;-16.902;2023-05-02T07:15:24;100955.06;;;20.14;41.33
61026;BME280;46911;32.650;-16.902;2023-05-02T07:17:30;100981.66;;;20.19;40.94
61026;BME280;46911;32.650;-16.902;2023-05-02T07:19:31;101005.25;;;20.35;40.52
61026;BME280;46911;32.650;-16.902;2023-05-02T07:21:35;101012.06;;;20.39;40.47
61026;BME280;46911;32.650;-16.902;2023-05-02T07:23:39;101031.47;;;20.52;40.57
61026;BME280;46911;32.650;-16.902;2023-05-02T07:25:42;101046.59;;;20.63;39.74
61026;BME280;46911;32.650;-16.902;2023-05-02T07:27:45;101051.72;;;20.74;40.17
61026;BME280;46911;32.650;-16.902;2023-05-02T07:29:51;101044.13;;;20.78;40.10
61026;BME280;46911;32.650;-16.902;2023-05-02T07:31:54;101043.81;;;20.89;41.28
61026;BME280;46911;32.650;-16.902;2023-05-02T07:33:55;101044.34;;;20.93;41.37
61026;BME280;46911;32.650;-16.902;2023-05-02T07:35:56;101068.28;;;21.06;41.93
61026;BME280;46911;32.650;-16.902;2023-05-02T07:37:57;101065.97;;;21.19;43.27
61026;BME280;46911;32.650;-16.902;2023-05-02T07:39:58;101042.91;;;21.15;44.17
61026;BME280;46911;32.650;-16.902;2023-05-02T07:41:59;101045.81;;;21.30;45.49
61026;BME280;46911;32.650;-16.902;2023-05-02T07:44:03;101072.59;;;21.50;46.26
61026;BME280;46911;32.650;-16.902;2023-05-02T07:46:06;101088.97;;;21.58;46.35
61026;BME280;46911;32.650;-16.902;2023-05-02T07:48:07;101083.00;;;21.63;45.99
61026;BME280;46911;32.650;-16.902;2023-05-02T07:50:08;101084.72;;;21.80;45.73
61026;BME280;46911;32.650;-16.902;2023-05-02T07:52:09;101088.94;;;21.99;44.87
61026;BME280;46911;32.650;-16.902;2023-05-02T07:54:19;101093.38;;;22.25;44.17
61026;BME280;46911;32.650;-16.902;2023-05-02T07:56:30;101087.59;;;22.36;43.73
61026;BME280;46911;32.650;-16.902;2023-05-02T07:58:31;101064.66;;;22.31;44.75
61026;BME280;46911;32.650;-16.902;2023-05-02T08:00:32;101079.25;;;22.46;44.85
61026;BME280;46911;32.650;-16.902;2023-05-02T08:02:33;101085.88;;;22.44;45.62
61026;BME280;46911;32.650;-16.902;2023-05-02T08:04:39;101085.19;;;22.42;45.65
61026;BME280;46911;32.650;-16.902;2023-05-02T08:06:40;101076.53;;;22.30;43.08
61026;BME280;46911;32.650;-16.902;2023-05-02T08:08:43;101101.69;;;22.40;42.40
61026;BME280;46911;32.650;-16.902;2023-05-02T08:10:49;101103.06;;;22.36;44.26
61026;BME280;46911;32.650;-16.902;2023-05-02T08:12:52;101113.59;;;22.14;40.95
61026;BME280;46911;32.650;-16.902;2023-05-02T08:14:53;101110.53;;;22.09;47.18
61026;BME280;46911;32.650;-16.902;2023-05-02T08:16:59;101108.84;;;21.83;48.48
61026;BME280;46911;32.650;-16.902;2023-05-02T08:19:00;101114.06;;;21.60;52.52
61026;BME280;46911;32.650;-16.902;2023-05-02T08:21:04;101113.72;;;21.55;52.16
61026;BME280;46911;32.650;-16.902;2023-05-02T08:23:10;101111.34;;;21.60;44.48
61026;BME280;46911;32.650;-16.902;2023-05-02T08:25:11;101115.25;;;21.66;43.34
61026;BME280;46911;32.650;-16.902;2023-05-02T08:27:12;101106.09;;;21.67;41.10
61026;BME280;46911;32.650;-16.902;2023-05-02T08:29:15;101119.34;;;21.86;55.05
61026;BME280;46911;32.650;-16.902;2023-05-02T08:31:16;101121.53;;;21.66;61.09
61026;BME280;46911;32.650;-16.902;2023-05-02T08:33:17;101121.81;;;21.47;63.23
61026;BME280;46911;32.650;-16.902;2023-05-02T08:35:20;101116.00;;;21.25;64.17
61026;BME280;46911;32.650;-16.902;2023-05-02T08:37:21;101133.28;;;21.24;65.09
61026;BME280;46911;32.650;-16.902;2023-05-02T08:39:22;101135.31;;;21.22;66.09
61026;BME280;46911;32.650;-16.902;2023-05-02T08:41:28;101134.63;;;21.20;65.47
61026;BME280;46911;32.650;-16.902;2023-05-02T08:43:33;101134.44;;;21.21;63.99
61026;BME280;46911;32.650;-16.902;2023-05-02T08:45:38;101122.78;;;21.29;63.23
61026;BME280;46911;32.650;-16.902;2023-05-02T08:47:44;101107.75;;;21.51;62.11
61026;BME280;46911;32.650;-16.902;2023-05-02T08:49:47;101110.69;;;21.99;59.10
61026;BME280;46911;32.650;-16.902;2023-05-02T08:51:50;101096.59;;;22.37;58.70
61026;BME280;46911;32.650;-16.902;2023-05-02T08:53:57;101112.28;;;22.83;55.71
61026;BME280;46911;32.650;-16.902;2023-05-02T08:56:00;101099.41;;;22.68;61.32
61026;BME280;46911;32.650;-16.902;2023-05-02T08:58:05;101111.81;;;23.19;60.66
61026;BME280;46911;32.650;-16.902;2023-05-02T09:00:06;101079.47;;;23.47;58.47
61026;BME280;46911;32.650;-16.902;2023-05-02T09:04:40;101081.44;;;24.23;53.65
61026;BME280;46911;32.650;-16.902;2023-05-02T09:06:42;101098.09;;;23.90;55.39
61026;BME280;46911;32.650;-16.902;2023-05-02T09:08:45;101090.59;;;23.92;54.53
61026;BME280;46911;32.650;-16.902;2023-05-02T09:10:49;101097.41;;;24.11;54.91
61026;BME280;46911;32.650;-16.902;2023-05-02T09:12:55;101097.81;;;24.38;53.82
61026;BME280;46911;32.650;-16.902;2023-05-02T09:15:13;101106.06;;;24.30;52.17
61026;BME280;46911;32.650;-16.902;2023-05-02T09:17:15;101101.97;;;24.49;53.63
61026;BME280;46911;32.650;-16.902;2023-05-02T09:19:27;101098.31;;;25.01;53.18
61026;BME280;46911;32.650;-16.902;2023-05-02T09:21:36;101110.19;;;24.94;53.85
61026;BME280;46911;32.650;-16.902;2023-05-02T09:23:41;101100.59;;;25.34;51.62
61026;BME280;46911;32.650;-16.902;2023-05-02T09:25:43;101085.31;;;25.40;48.25
61026;BME280;46911;32.650;-16.902;2023-05-02T09:27:54;101086.66;;;24.93;51.45
61026;BME280;46911;32.650;-16.902;2023-05-02T09:30:24;101081.44;;;25.13;51.89
61026;BME280;46911;32.650;-16.902;2023-05-02T09:32:43;101091.94;;;25.46;50.04
61026;BME280;46911;32.650;-16.902;2023-05-02T09:35:04;101084.09;;;25.43;49.89
61026;BME280;46911;32.650;-16.902;2023-05-02T09:37:05;101091.84;;;25.24;50.13
61026;BME280;46911;32.650;-16.902;2023-05-02T09:39:25;101092.88;;;25.38;48.84
61026;BME280;46911;32.650;-16.902;2023-05-02T09:41:41;101087.13;;;24.96;47.77
61026;BME280;46911;32.650;-16.902;2023-05-02T09:43:57;101103.44;;;26.06;45.19
61026;BME280;46911;32.650;-16.902;2023-05-02T09:46:03;101107.88;;;26.35;43.91
61026;BME280;46911;32.650;-16.902;2023-05-02T09:48:04;101093.75;;;26.03;43.36
61026;BME280;46911;32.650;-16.902;2023-05-02T09:50:06;101082.66;;;26.40;42.49
61026;BME280;46911;32.650;-16.902;2023-05-02T09:52:13;101082.72;;;25.97;44.85
61026;BME280;46911;32.650;-16.902;2023-05-02T09:54:33;101091.06;;;25.67;46.30
61026;BME280;46911;32.650;-16.902;2023-05-02T09:56:54;101091.84;;;25.24;46.13
61026;BME280;46911;32.650;-16.902;2023-05-02T09:59:18;101096.38;;;25.17;44.10
61026;BME280;46911;32.650;-16.902;2023-05-02T10:01:19;101109.81;;;25.33;46.01
61026;BME280;46911;32.650;-16.902;2023-05-02T10:03:23;101091.91;;;24.94;44.81
61026;BME280;46911;32.650;-16.902;2023-05-02T10:05:27;101086.00;;;25.42;42.17
61026;BME280;46911;32.650;-16.902;2023-05-02T10:07:32;101103.34;;;25.56;41.50
61026;BME280;46911;32.650;-16.902;2023-05-02T10:09:35;101111.19;;;26.31;39.06
61026;BME280;46911;32.650;-16.902;2023-05-02T10:11:38;101121.22;;;26.80;36.83
61026;BME280;46911;32.650;-16.902;2023-05-02T10:13:40;101115.03;;;27.06;35.80
61026;BME280;46911;32.650;-16.902;2023-05-02T10:15:48;101115.44;;;26.68;35.77
61026;BME280;46911;32.650;-16.902;2023-05-02T10:17:50;101135.91;;;26.16;39.07
61026;BME280;46911;32.650;-16.902;2023-05-02T10:20:00;101134.41;;;25.92;44.41
61026;BME280;46911;32.650;-16.902;2023-05-02T10:22:06;101146.63;;;25.52;44.95
61026;BME280;46911;32.650;-16.902;2023-05-02T10:24:07;101150.78;;;25.18;46.17
61026;BME280;46911;32.650;-16.902;2023-05-02T10:26:13;101131.28;;;25.73;45.56
61026;BME280;46911;32.650;-16.902;2023-05-02T10:28:17;101151.47;;;26.15;43.80
61026;BME280;46911;32.650;-16.902;2023-05-02T10:30:18;101134.59;;;26.12;45.29
61026;BME280;46911;32.650;-16.902;2023-05-02T10:32:28;101136.66;;;25.88;44.40
61026;BME280;46911;32.650;-16.902;2023-05-02T10:34:32;101141.91;;;26.89;42.11
61026;BME280;46911;32.650;-16.902;2023-05-02T10:36:38;101131.00;;;27.38;40.91
61026;BME280;46911;32.650;-16.902;2023-05-02T10:38:41;101128.06;;;27.39;38.95
61026;BME280;46911;32.650;-16.902;2023-05-02T10:40:50;101143.91;;;27.64;37.57
61026;BME280;46911;32.650;-16.902;2023-05-02T10:42:56;101130.66;;;27.81;39.79
61026;BME280;46911;32.650;-16.902;2023-05-02T10:44:58;101130.63;;;27.61;41.35
61026;BME280;46911;32.650;-16.902;2023-05-02T10:47:00;101122.22;;;28.50;39.46
61026;BME280;46911;32.650;-16.902;2023-05-02T10:49:05;101135.56;;;28.06;41.33
61026;BME280;46911;32.650;-16.902;2023-05-02T10:51:07;101128.56;;;28.70;41.02